Time;durP1;ratioP1;P1;durP2;ratioP2;P2;SDS_P1;SDS_P2;PMS_P1;PMS_P2;Temp;Humidity;BMP_temperature;BMP_pressure;BME280_temperature;BME280_humidity;BME280_pressure;Samples;Min_cycle;Max_cycle;Signal;HPM_P1;HPM_P2
2024/01/03 00:00:50;;;;;;;3.60;1.23;;;10.90;99.90;;;;;;5021100;28;20447;-81
2024/01/03 00:03:18;;;;;;;2.07;0.87;;;10.90;99.90;;;;;;5015917;28;20443;-81
2024/01/03 00:05:45;;;;;;;5.07;0.90;;;10.90;99.90;;;;;;5026235;28;20439;-82
2024/01/03 00:08:17;;;;;;;7.30;2.10;;;10.80;99.90;;;;;;5033777;28;20447;-81
2024/01/03 00:10:47;;;;;;;1.47;0.93;;;10.70;99.90;;;;;;5027858;28;20445;-81
2024/01/03 00:13:51;;;;;;;5.65;1.05;;;10.60;99.90;;;;;;5025986;28;20446;-82
2024/01/03 00:16:22;;;;;;;1.33;1.23;;;10.50;99.90;;;;;;5017542;28;20629;-81
2024/01/03 00:18:50;;;;;;;4.83;0.87;;;10.40;99.90;;;;;;5025961;28;20664;-82
2024/01/03 00:21:22;;;;;;;6.53;0.93;;;10.40;99.90;;;;;;5024901;28;20947;-82
2024/01/03 00:23:51;;;;;;;4.63;0.83;;;10.40;99.90;;;;;;5019819;28;20928;-82
2024/01/03 00:26:20;;;;;;;5.60;2.50;;;10.40;99.90;;;;;;5032991;28;20793;-81
2024/01/03 00:28:47;;;;;;;2.25;0.80;;;10.30;99.90;;;;;;5027151;28;20445;-82
2024/01/03 00:31:46;;;;;;;2.75;1.33;;;10.20;99.90;;;;;;5017678;28;20197;-81
2024/01/03 00:34:37;;;;;;;4.37;2.10;;;9.90;99.90;;;;;;4986911;28;20227;-81
2024/01/03 00:37:19;;;;;;;7.20;3.07;;;9.80;99.90;;;;;;5034136;28;20474;-78
2024/01/03 00:39:46;;;;;;;16.73;1.90;;;9.70;99.90;;;;;;5025703;28;20434;-82
2024/01/03 00:42:14;;;;;;;0.50;0.40;;;9.60;99.90;;;;;;5034579;28;20709;-80
2024/01/03 00:44:41;;;;;;;0.63;0.63;;;9.60;99.90;;;;;;5014950;28;20370;-82
2024/01/03 00:47:08;;;;;;;1.63;0.90;;;9.50;99.90;;;;;;5014606;28;20439;-82
2024/01/03 00:49:36;;;;;;;4.75;2.05;;;9.40;99.90;;;;;;5025622;28;20192;-81
2024/01/03 00:52:03;;;;;;;1.73;1.15;;;9.40;99.90;;;;;;5027418;28;20667;-81
2024/01/03 00:54:31;;;;;;;0.50;0.40;;;9.40;99.90;;;;;;5032767;28;20227;-82
2024/01/03 00:56:59;;;;;;;1.27;1.05;;;9.40;99.90;;;;;;5034047;28;20214;-82
2024/01/03 00:59:28;;;;;;;4.23;0.87;;;9.40;99.90;;;;;;5024706;28;20265;-81
2024/01/03 01:01:57;;;;;;;1.27;1.20;;;9.40;99.90;;;;;;5026338;28;20437;-82
2024/01/03 01:04:24;;;;;;;5.88;1.42;;;9.40;99.90;;;;;;5017546;28;20216;-82
2024/01/03 01:06:51;;;;;;;8.63;1.57;;;9.50;99.90;;;;;;5028986;28;20192;-82
2024/01/03 01:09:17;;;;;;;0.50;0.40;;;9.50;99.90;;;;;;5030508;28;20445;-83
2024/01/03 01:11:44;;;;;;;0.98;0.77;;;9.60;99.90;;;;;;5029769;28;20663;-82
2024/01/03 01:14:11;;;;;;;4.22;0.60;;;9.60;99.90;;;;;;5013585;28;20235;-83
2024/01/03 01:16:39;;;;;;;0.73;0.50;;;9.70;99.90;;;;;;5025312;28;20227;-81
2024/01/03 01:19:07;;;;;;;2.30;1.20;;;9.80;99.90;;;;;;5026880;28;20439;-82
2024/01/03 01:21:34;;;;;;;6.87;0.97;;;9.80;99.90;;;;;;5032882;28;20678;-82
2024/01/03 01:24:01;;;;;;;1.37;1.27;;;9.70;99.90;;;;;;5027290;28;20447;-79
2024/01/03 01:26:27;;;;;;;13.83;1.70;;;9.80;99.90;;;;;;5030986;28;20437;-82
2024/01/03 01:28:54;;;;;;;2.85;1.80;;;9.80;99.90;;;;;;5020209;28;20446;-81
2024/01/03 01:31:21;;;;;;;3.17;1.35;;;9.80;99.90;;;;;;5022179;28;20580;-82
2024/01/03 01:33:49;;;;;;;5.30;1.40;;;9.80;99.90;;;;;;5028935;28;20713;-82
2024/01/03 01:36:16;;;;;;;3.13;1.35;;;9.80;99.90;;;;;;5021473;28;20472;-82
2024/01/03 01:38:43;;;;;;;9.88;1.13;;;9.70;99.90;;;;;;5013064;28;20197;-83
2024/01/03 01:41:10;;;;;;;1.17;1.07;;;9.70;99.90;;;;;;5013585;28;20275;-78
2024/01/03 01:43:37;;;;;;;0.50;0.40;;;9.60;99.90;;;;;;5013482;28;20463;-82
2024/01/03 01:46:04;;;;;;;0.50;0.40;;;9.50;99.90;;;;;;5013501;28;20188;-78
2024/01/03 01:48:31;;;;;;;0.50;0.50;;;9.40;99.90;;;;;;5031084;28;20200;-83
2024/01/03 01:51:00;;;;;;;24.48;1.58;;;9.40;99.90;;;;;;5019923;28;20193;-82
2024/01/03 01:53:26;;;;;;;6.82;0.60;;;9.30;99.90;;;;;;5022227;28;20215;-82
2024/01/03 01:55:56;;;;;;;1.90;0.97;;;9.30;99.90;;;;;;5024940;28;20196;-83
2024/01/03 01:58:24;;;;;;;0.60;0.50;;;9.30;99.90;;;;;;5016145;28;20439;-81
2024/01/03 02:00:51;;;;;;;0.70;0.65;;;9.30;99.90;;;;;;5029134;28;20217;-83
2024/01/03 02:03:17;;;;;;;6.07;2.00;;;9.30;99.90;;;;;;5021717;28;20549;-81
2024/01/03 02:05:45;;;;;;;3.00;0.68;;;9.30;99.90;;;;;;5024822;28;20203;-82
2024/01/03 02:08:13;;;;;;;0.52;0.43;;;9.40;99.90;;;;;;5025983;28;20563;-81
2024/01/03 02:10:40;;;;;;;3.42;0.98;;;9.40;99.90;;;;;;5021412;28;20212;-83
2024/01/03 02:13:07;;;;;;;0.80;0.80;;;9.40;99.90;;;;;;5021187;28;20204;-83
2024/01/03 02:15:33;;;;;;;0.73;0.50;;;9.40;99.90;;;;;;5030544;28;20191;-82
2024/01/03 02:18:01;;;;;;;0.50;0.40;;;9.50;99.90;;;;;;5032328;28;20223;-83
2024/01/03 02:20:32;;;;;;;4.32;1.55;;;9.50;99.90;;;;;;5024287;28;20241;-83
2024/01/03 02:23:01;;;;;;;8.02;0.88;;;9.60;99.90;;;;;;5032678;28;20238;-79
2024/01/03 02:25:27;;;;;;;5.88;1.08;;;9.60;99.90;;;;;;5031926;28;20200;-83
2024/01/03 02:27:54;;;;;;;1.23;0.80;;;9.60;99.90;;;;;;5016932;28;20213;-81
2024/01/03 02:30:21;;;;;;;2.65;1.15;;;9.60;99.90;;;;;;5024633;28;20196;-81
2024/01/03 02:32:48;;;;;;;5.45;0.93;;;9.60;99.90;;;;;;5024492;28;20196;-81
2024/01/03 02:35:14;;;;;;;0.50;0.50;;;9.60;99.90;;;;;;5024454;28;20215;-81
2024/01/03 02:37:41;;;;;;;2.00;1.23;;;9.50;99.90;;;;;;5024114;28;20219;-82
2024/01/03 02:40:10;;;;;;;2.78;1.60;;;9.50;99.90;;;;;;5018535;28;20443;-82
2024/01/03 02:42:37;;;;;;;3.78;1.25;;;9.40;99.90;;;;;;5023209;28;20202;-82
2024/01/03 02:45:04;;;;;;;4.63;2.45;;;9.40;99.90;;;;;;5019339;28;20219;-80
2024/01/03 02:47:31;;;;;;;1.15;1.10;;;9.40;99.90;;;;;;5012992;28;20648;-82
2024/01/03 02:49:58;;;;;;;1.65;1.13;;;9.30;99.90;;;;;;5019867;28;20189;-81
2024/01/03 02:52:26;;;;;;;3.70;0.90;;;9.30;99.90;;;;;;5028625;28;20663;-83
2024/01/03 02:54:52;;;;;;;0.77;0.57;;;9.20;99.90;;;;;;5012671;28;20827;-83
2024/01/03 02:57:21;;;;;;;2.07;1.00;;;9.20;99.90;;;;;;5019573;28;20477;-83
2024/01/03 02:59:48;;;;;;;3.25;0.80;;;9.20;99.90;;;;;;5031910;28;20472;-83
2024/01/03 03:02:14;;;;;;;0.60;0.60;;;9.20;99.90;;;;;;5032332;28;20782;-81
2024/01/03 03:04:41;;;;;;;1.60;1.50;;;9.20;99.90;;;;;;5022074;28;20220;-82
2024/01/03 03:07:08;;;;;;;0.85;0.85;;;9.20;99.90;;;;;;5020927;28;20185;-81
2024/01/03 03:09:35;;;;;;;0.50;0.50;;;9.30;99.90;;;;;;5011842;28;20203;-83
2024/01/03 03:12:01;;;;;;;3.92;0.93;;;9.30;99.90;;;;;;5012497;28;20189;-82
2024/01/03 03:14:29;;;;;;;0.80;0.80;;;9.30;99.90;;;;;;5011703;28;20224;-82
2024/01/03 03:16:56;;;;;;;0.73;0.50;;;9.30;99.90;;;;;;5024174;28;20575;-82
2024/01/03 03:19:23;;;;;;;2.67;1.75;;;9.40;99.90;;;;;;5021774;28;20200;-83
2024/01/03 03:21:50;;;;;;;0.70;0.50;;;9.50;99.90;;;;;;5020217;28;20188;-84
2024/01/03 03:24:16;;;;;;;0.60;0.60;;;9.60;99.90;;;;;;5041303;28;20703;-84
2024/01/03 03:26:43;;;;;;;7.90;2.03;;;9.60;99.90;;;;;;5031825;28;20192;-85
2024/01/03 03:29:10;;;;;;;2.40;1.23;;;9.70;99.90;;;;;;5018500;28;20196;-81
2024/01/03 03:31:38;;;;;;;2.30;0.80;;;9.70;99.90;;;;;;5013100;28;20220;-82
2024/01/03 03:34:05;;;;;;;1.27;0.88;;;9.70;99.90;;;;;;5015713;28;20583;-83
2024/01/03 03:36:31;;;;;;;1.30;0.82;;;9.60;99.90;;;;;;5015149;28;20687;-84
2024/01/03 03:38:58;;;;;;;7.07;4.97;;;9.50;99.90;;;;;;5019090;28;20666;-85
2024/01/03 03:41:25;;;;;;;0.90;0.70;;;9.40;99.90;;;;;;5035258;28;20203;-84
2024/01/03 03:43:51;;;;;;;1.17;0.65;;;9.30;99.90;;;;;;5034658;28;20216;-83
2024/01/03 03:46:19;;;;;;;2.38;1.63;;;9.30;99.90;;;;;;5034880;28;20571;-84
2024/01/03 03:48:47;;;;;;;1.25;0.82;;;9.30;99.90;;;;;;5035012;28;20652;-82
2024/01/03 03:51:13;;;;;;;2.35;0.82;;;9.30;99.90;;;;;;5016851;28;20690;-85
2024/01/03 03:53:40;;;;;;;0.50;0.40;;;9.40;99.90;;;;;;5015245;28;20220;-85
2024/01/03 03:56:07;;;;;;;3.42;0.80;;;9.40;99.90;;;;;;5015503;28;20196;-84
2024/01/03 03:58:34;;;;;;;1.80;0.80;;;9.40;99.90;;;;;;5013546;28;20216;-84
2024/01/03 04:01:01;;;;;;;1.58;0.60;;;9.40;99.90;;;;;;5027713;28;20188;-84
2024/01/03 04:03:28;;;;;;;0.55;0.55;;;9.50;99.90;;;;;;5035287;28;20224;-83
2024/01/03 04:05:56;;;;;;;0.63;0.63;;;9.50;99.90;;;;;;5034566;28;20852;-85
2024/01/03 04:08:22;;;;;;;1.00;0.60;;;9.50;99.90;;;;;;5027968;28;20196;-86
2024/01/03 04:10:49;;;;;;;3.85;1.10;;;9.50;99.90;;;;;;5015015;28;20439;-85
2024/01/03 04:13:16;;;;;;;5.73;1.30;;;9.60;99.90;;;;;;5015002;28;20690;-84
2024/01/03 04:15:42;;;;;;;1.02;1.02;;;9.60;99.90;;;;;;5014781;28;20440;-85
2024/01/03 04:18:09;;;;;;;0.75;0.47;;;9.60;99.90;;;;;;5014786;28;20248;-82
2024/01/03 04:20:36;;;;;;;0.50;0.38;;;9.60;99.90;;;;;;5014816;28;20283;-84
2024/01/03 04:23:04;;;;;;;0.50;0.50;;;9.60;99.90;;;;;;5014619;28;20576;-84
2024/01/03 04:25:31;;;;;;;4.32;1.52;;;9.60;99.90;;;;;;5014442;28;20205;-84
2024/01/03 04:27:58;;;;;;;8.73;3.38;;;9.60;99.90;;;;;;5014440;28;20195;-85
2024/01/03 04:30:25;;;;;;;1.65;0.50;;;9.50;99.90;;;;;;5014723;28;20192;-83
2024/01/03 04:32:51;;;;;;;1.33;0.50;;;9.50;99.90;;;;;;5013159;28;20230;-84
2024/01/03 04:35:18;;;;;;;1.40;1.00;;;9.50;99.90;;;;;;5014305;28;20614;-84
2024/01/03 04:37:45;;;;;;;1.00;0.53;;;9.40;99.90;;;;;;5013960;28;20212;-84
2024/01/03 04:40:13;;;;;;;1.10;1.00;;;9.40;99.90;;;;;;5014655;28;20431;-82
2024/01/03 04:42:40;;;;;;;11.05;1.33;;;9.40;99.90;;;;;;5014295;28;20203;-83
2024/01/03 04:45:07;;;;;;;1.50;0.73;;;9.40;99.90;;;;;;5014011;28;20217;-83
2024/01/03 04:47:34;;;;;;;1.70;0.70;;;9.40;99.90;;;;;;5029897;28;20250;-82
2024/01/03 04:50:01;;;;;;;2.35;0.60;;;9.50;99.90;;;;;;5006042;28;20202;-83
2024/01/03 04:52:27;;;;;;;0.95;0.85;;;9.50;99.90;;;;;;5014286;28;20192;-84
2024/01/03 04:54:54;;;;;;;1.52;0.95;;;9.50;99.90;;;;;;5016281;28;20217;-83
2024/01/03 04:57:23;;;;;;;0.60;0.50;;;9.50;99.90;;;;;;5033669;28;20254;-83
2024/01/03 04:59:49;;;;;;;5.28;1.00;;;9.60;99.90;;;;;;5033395;28;20210;-84
2024/01/03 05:02:16;;;;;;;3.75;0.93;;;9.60;99.90;;;;;;5033632;28;20210;-83
2024/01/03 05:04:44;;;;;;;8.98;2.25;;;9.60;99.90;;;;;;5033342;28;20239;-84
2024/01/03 05:07:11;;;;;;;0.80;0.50;;;9.60;99.90;;;;;;5033597;28;20682;-82
2024/01/03 05:09:38;;;;;;;0.68;0.68;;;9.60;99.90;;;;;;5033384;28;20195;-82
2024/01/03 05:12:05;;;;;;;0.80;0.50;;;9.70;99.90;;;;;;5033353;28;20198;-83
2024/01/03 05:14:33;;;;;;;12.98;0.98;;;9.80;99.90;;;;;;5033300;28;21064;-83
2024/01/03 05:17:00;;;;;;;6.55;1.40;;;9.80;99.90;;;;;;5032784;28;20188;-83
2024/01/03 05:19:27;;;;;;;2.47;0.50;;;9.80;99.90;;;;;;5021857;28;20725;-83
2024/01/03 05:21:54;;;;;;;1.00;0.70;;;9.80;99.90;;;;;;5013429;28;20664;-82
2024/01/03 05:24:21;;;;;;;3.95;0.70;;;9.80;99.90;;;;;;5013294;28;20220;-83
2024/01/03 05:26:48;;;;;;;0.50;0.40;;;9.90;99.90;;;;;;5013265;28;20200;-82
2024/01/03 05:29:18;;;;;;;1.00;0.60;;;9.80;99.90;;;;;;5012886;28;20189;-82
2024/01/03 05:31:46;;;;;;;0.50;0.50;;;9.80;99.90;;;;;;5013046;28;20193;-82
2024/01/03 05:34:13;;;;;;;0.85;0.50;;;9.80;99.90;;;;;;5013708;28;20216;-82
2024/01/03 05:36:40;;;;;;;0.50;0.40;;;9.80;99.90;;;;;;5013295;28;20200;-82
2024/01/03 05:39:06;;;;;;;1.00;0.55;;;9.90;99.90;;;;;;5012983;28;20580;-82
2024/01/03 05:41:33;;;;;;;1.15;0.50;;;9.90;99.90;;;;;;5013040;28;20200;-82
2024/01/03 05:44:00;;;;;;;10.35;3.70;;;9.90;99.90;;;;;;5012696;28;20213;-82
2024/01/03 05:46:27;;;;;;;0.50;0.40;;;9.90;99.90;;;;;;5012859;28;20196;-82
2024/01/03 05:48:55;;;;;;;0.50;0.40;;;9.80;99.90;;;;;;5012539;28;20188;-82
2024/01/03 05:51:21;;;;;;;0.50;0.40;;;9.70;99.90;;;;;;5012666;28;20200;-82
2024/01/03 05:53:48;;;;;;;1.50;0.50;;;9.70;99.90;;;;;;5012603;28;20227;-82
2024/01/03 05:56:15;;;;;;;3.22;0.60;;;9.60;99.90;;;;;;5012725;28;20676;-82
2024/01/03 05:58:43;;;;;;;4.75;1.15;;;9.70;99.90;;;;;;5016863;28;20212;-82
2024/01/03 06:01:09;;;;;;;0.50;0.40;;;9.70;99.90;;;;;;5008776;28;20679;-82
2024/01/03 06:03:36;;;;;;;1.25;1.15;;;9.70;99.90;;;;;;5009843;28;20224;-83
2024/01/03 06:06:05;;;;;;;0.50;0.40;;;9.70;99.90;;;;;;5012390;28;20232;-83
2024/01/03 06:08:32;;;;;;;0.60;0.60;;;9.70;99.90;;;;;;5012337;28;20204;-83
2024/01/03 06:10:58;;;;;;;1.02;0.50;;;9.70;99.90;;;;;;5012882;28;20196;-83
2024/01/03 06:13:25;;;;;;;0.80;0.70;;;9.70;99.90;;;;;;5012164;28;20228;-83
2024/01/03 06:15:52;;;;;;;0.50;0.40;;;9.70;99.90;;;;;;5012237;28;20435;-81
2024/01/03 06:18:18;;;;;;;0.80;0.80;;;9.70;99.90;;;;;;5012181;28;20220;-82
2024/01/03 06:20:45;;;;;;;2.15;0.75;;;9.70;99.90;;;;;;5012315;28;20208;-82
2024/01/03 06:23:13;;;;;;;0.50;0.40;;;9.70;99.90;;;;;;5012155;28;20200;-82
2024/01/03 06:25:40;;;;;;;1.17;0.70;;;9.70;99.90;;;;;;5019585;28;20249;-83
2024/01/03 06:28:07;;;;;;;8.02;2.42;;;9.70;99.90;;;;;;5023638;28;20445;-82
2024/01/03 06:30:35;;;;;;;1.00;0.63;;;9.70;99.90;;;;;;5031653;28;20196;-84
2024/01/03 06:33:02;;;;;;;2.28;0.70;;;9.60;99.90;;;;;;5031497;28;20211;-81
2024/01/03 06:35:30;;;;;;;0.60;0.60;;;9.60;99.90;;;;;;5032216;28;20207;-82
2024/01/03 06:37:57;;;;;;;0.90;0.60;;;9.50;99.90;;;;;;5031568;28;20215;-83
2024/01/03 06:40:25;;;;;;;0.50;0.40;;;9.50;99.90;;;;;;5032250;28;20199;-83
2024/01/03 06:42:52;;;;;;;1.77;1.15;;;9.40;99.90;;;;;;5024014;28;20431;-82
2024/01/03 06:45:18;;;;;;;1.48;0.85;;;9.40;99.90;;;;;;5024790;28;20238;-83
2024/01/03 06:47:45;;;;;;;0.70;0.60;;;9.40;99.90;;;;;;5031784;28;20661;-83
2024/01/03 06:50:13;;;;;;;0.85;0.75;;;9.40;99.90;;;;;;5031542;28;20202;-80
2024/01/03 06:52:39;;;;;;;5.43;0.80;;;9.30;99.90;;;;;;5016713;28;20200;-82
2024/01/03 06:55:07;;;;;;;0.70;0.70;;;9.30;99.90;;;;;;5013235;28;20221;-82
2024/01/03 06:57:36;;;;;;;2.20;0.80;;;9.20;99.90;;;;;;5014753;28;20198;-83
2024/01/03 07:00:02;;;;;;;9.67;0.60;;;9.20;99.90;;;;;;5016321;28;20439;-83
2024/01/03 07:02:29;;;;;;;5.88;0.65;;;9.10;99.90;;;;;;5016079;28;20439;-84
2024/01/03 07:04:56;;;;;;;1.23;1.13;;;9.00;99.90;;;;;;5016585;28;20215;-84
2024/01/03 07:07:23;;;;;;;4.05;1.25;;;9.00;99.90;;;;;;5016206;28;20196;-83
2024/01/03 07:09:49;;;;;;;0.60;0.60;;;9.00;99.90;;;;;;5015865;28;20219;-82
2024/01/03 07:12:16;;;;;;;0.40;0.40;;;9.00;99.90;;;;;;5028508;28;20202;-80
2024/01/03 07:14:44;;;;;;;0.50;0.40;;;9.00;99.90;;;;;;5027370;28;20223;-84
2024/01/03 07:17:11;;;;;;;1.13;0.70;;;9.00;99.90;;;;;;5035586;28;20195;-83
2024/01/03 07:19:38;;;;;;;6.68;2.13;;;9.00;99.90;;;;;;5035782;28;20714;-83
2024/01/03 07:22:05;;;;;;;1.58;1.45;;;9.00;99.90;;;;;;5026509;28;20207;-83
2024/01/03 07:24:31;;;;;;;4.72;1.23;;;8.90;99.90;;;;;;5024523;28;20223;-84
2024/01/03 07:26:58;;;;;;;1.63;0.50;;;8.90;99.90;;;;;;5016305;28;20193;-84
2024/01/03 07:29:25;;;;;;;0.70;0.70;;;8.90;99.90;;;;;;5028273;28;20195;-86
2024/01/03 07:31:53;;;;;;;0.82;0.60;;;8.90;99.90;;;;;;5036454;28;20196;-85
2024/01/03 07:34:20;;;;;;;0.55;0.55;;;8.90;99.90;;;;;;5049012;28;20295;-85
2024/01/03 07:36:46;;;;;;;1.13;1.02;;;8.90;99.90;;;;;;5048893;28;20196;-86
2024/01/03 07:39:13;;;;;;;3.15;0.50;;;8.80;99.90;;;;;;5029487;28;20700;-85
2024/01/03 07:41:43;;;;;;;0.50;0.43;;;8.80;99.90;;;;;;5029770;28;20203;-85
2024/01/03 07:44:10;;;;;;;0.82;0.75;;;8.80;99.90;;;;;;5028570;28;20218;-84
2024/01/03 07:46:37;;;;;;;12.75;4.63;;;8.80;99.90;;;;;;5034942;28;20670;-85
2024/01/03 07:49:05;;;;;;;0.40;0.40;;;8.80;99.90;;;;;;5048792;28;20206;-85
2024/01/03 07:51:33;;;;;;;0.55;0.55;;;8.80;99.90;;;;;;5043818;28;20204;-85
2024/01/03 07:54:00;;;;;;;4.22;1.25;;;8.80;99.90;;;;;;5029967;28;20240;-86
2024/01/03 07:56:26;;;;;;;8.98;1.73;;;8.90;99.90;;;;;;5029488;28;20193;-85
2024/01/03 07:58:53;;;;;;;12.07;1.42;;;8.90;99.90;;;;;;5029493;28;20220;-85
2024/01/03 08:01:21;;;;;;;0.40;0.40;;;9.00;99.90;;;;;;5029659;28;20218;-84
2024/01/03 08:03:48;;;;;;;0.40;0.30;;;9.00;99.90;;;;;;5029095;28;20582;-84
2024/01/03 08:06:21;;;;;;;0.50;0.50;;;9.00;99.90;;;;;;5048129;28;20199;-83
2024/01/03 08:08:47;;;;;;;1.35;0.60;;;9.00;99.90;;;;;;5041760;28;20537;-85
2024/01/03 08:11:14;;;;;;;0.50;0.50;;;8.90;99.90;;;;;;5029443;28;20203;-85
2024/01/03 08:13:41;;;;;;;0.40;0.30;;;8.80;99.90;;;;;;5029272;28;20220;-86
2024/01/03 08:16:08;;;;;;;0.50;0.40;;;8.80;99.90;;;;;;5027937;28;20240;-86
2024/01/03 08:18:34;;;;;;;1.48;0.77;;;8.70;99.90;;;;;;5015170;28;20205;-85
2024/01/03 08:21:01;;;;;;;0.55;0.52;;;8.70;99.90;;;;;;5013709;28;20556;-86
2024/01/03 08:23:31;;;;;;;0.70;0.40;;;8.70;99.90;;;;;;5015129;28;20220;-86
2024/01/03 08:25:58;;;;;;;0.40;0.40;;;8.70;99.90;;;;;;5017095;28;20188;-83
2024/01/03 08:28:25;;;;;;;0.43;0.30;;;8.70;99.90;;;;;;5020339;28;20197;-85
2024/01/03 08:30:52;;;;;;;0.50;0.50;;;8.70;99.90;;;;;;5015446;28;20475;-83
2024/01/03 08:33:19;;;;;;;1.25;0.60;;;8.60;99.90;;;;;;5014801;28;20201;-86
2024/01/03 08:35:46;;;;;;;0.40;0.40;;;8.50;99.90;;;;;;5021174;28;20226;-85
2024/01/03 08:38:12;;;;;;;0.43;0.40;;;8.50;99.90;;;;;;5031921;28;20212;-83
2024/01/03 08:40:40;;;;;;;1.85;0.95;;;8.40;99.90;;;;;;5028247;28;20659;-85
2024/01/03 08:43:07;;;;;;;0.40;0.40;;;8.40;99.90;;;;;;5017034;28;20197;-85
2024/01/03 08:45:34;;;;;;;0.88;0.88;;;8.40;99.90;;;;;;5019570;28;20195;-84
2024/01/03 08:48:03;;;;;;;1.40;0.82;;;8.40;99.90;;;;;;5017895;28;20188;-84
2024/01/03 08:50:29;;;;;;;0.50;0.40;;;8.40;99.90;;;;;;5034653;28;20196;-84
2024/01/03 08:52:56;;;;;;;1.88;0.60;;;8.40;99.90;;;;;;5034156;28;20239;-84
2024/01/03 08:55:23;;;;;;;0.65;0.65;;;8.40;99.90;;;;;;5034025;28;20729;-83
2024/01/03 08:57:56;;;;;;;0.40;0.40;;;8.50;99.90;;;;;;5033937;28;20260;-85
2024/01/03 09:00:23;;;;;;;0.40;0.40;;;8.50;99.90;;;;;;5030712;28;20221;-84
2024/01/03 09:02:50;;;;;;;0.40;0.40;;;8.50;99.90;;;;;;5021817;28;20198;-84
2024/01/03 09:05:18;;;;;;;0.50;0.45;;;8.50;99.90;;;;;;5033337;28;20246;-83
2024/01/03 09:07:45;;;;;;;0.40;0.30;;;8.50;99.90;;;;;;5033661;28;20203;-85
2024/01/03 09:10:12;;;;;;;0.50;0.50;;;8.60;99.90;;;;;;5029848;28;20266;-85
2024/01/03 09:12:39;;;;;;;0.50;0.40;;;8.60;99.90;;;;;;5018740;28;20210;-83
2024/01/03 09:15:08;;;;;;;3.42;2.33;;;8.60;99.90;;;;;;5025576;28;20211;-85
2024/01/03 09:17:35;;;;;;;0.40;0.40;;;8.70;99.90;;;;;;5033530;28;20192;-84
2024/01/03 09:20:02;;;;;;;0.40;0.40;;;8.70;99.90;;;;;;5024617;28;20231;-85
2024/01/03 09:22:28;;;;;;;0.40;0.40;;;8.70;99.90;;;;;;5017341;28;20435;-84
2024/01/03 09:24:55;;;;;;;0.50;0.40;;;8.70;99.90;;;;;;5033343;28;20587;-84
2024/01/03 09:27:22;;;;;;;13.57;1.77;;;8.80;99.90;;;;;;5033137;28;20215;-85
2024/01/03 09:29:49;;;;;;;0.50;0.40;;;8.80;99.90;;;;;;5032994;28;20184;-84
2024/01/03 09:32:18;;;;;;;0.70;0.60;;;8.90;99.90;;;;;;5031331;28;20874;-84
2024/01/03 09:34:45;;;;;;;1.88;0.70;;;8.90;99.90;;;;;;5013306;28;20208;-85
2024/01/03 09:37:12;;;;;;;0.40;0.40;;;8.90;99.90;;;;;;5013047;28;20192;-84
2024/01/03 09:39:38;;;;;;;5.75;0.65;;;8.90;99.90;;;;;;5020972;28;20223;-84
2024/01/03 09:42:05;;;;;;;5.30;1.25;;;8.90;99.90;;;;;;5013220;28;20544;-85
2024/01/03 09:44:33;;;;;;;1.67;0.70;;;9.00;99.90;;;;;;5028484;28;20208;-85
2024/01/03 09:47:00;;;;;;;0.43;0.40;;;9.00;99.90;;;;;;5021171;28;20196;-84
2024/01/03 09:49:28;;;;;;;0.90;0.90;;;9.10;99.90;;;;;;5024390;28;20433;-86
2024/01/03 09:51:56;;;;;;;8.45;2.20;;;9.10;99.90;;;;;;5033079;28;20457;-86
2024/01/03 09:54:23;;;;;;;0.60;0.50;;;9.00;99.90;;;;;;5030074;28;20250;-84
2024/01/03 09:56:52;;;;;;;2.45;1.00;;;9.00;99.90;;;;;;5013056;28;20444;-85
2024/01/03 09:59:21;;;;;;;0.60;0.47;;;8.90;99.90;;;;;;5013358;28;20235;-85
2024/01/03 10:01:55;;;;;;;1.25;0.80;;;8.90;99.90;;;;;;5021501;28;20287;-85
2024/01/03 10:04:22;;;;;;;1.40;1.30;;;8.90;99.90;;;;;;5014084;28;20212;-84
2024/01/03 10:06:53;;;;;;;1.58;1.52;;;8.90;99.90;;;;;;5021201;28;20188;-84
2024/01/03 10:09:20;;;;;;;3.75;1.00;;;8.90;99.90;;;;;;5023012;28;20196;-85
2024/01/03 10:11:51;;;;;;;0.50;0.40;;;9.00;99.90;;;;;;5018517;28;20195;-85
2024/01/03 10:14:18;;;;;;;2.72;2.15;;;9.00;99.90;;;;;;5030101;28;20478;-85
2024/01/03 10:16:47;;;;;;;0.50;0.40;;;9.10;99.90;;;;;;5018515;28;20196;-83
2024/01/03 10:19:15;;;;;;;1.15;1.10;;;9.30;99.90;;;;;;5021231;28;20470;-80
2024/01/03 10:21:49;;;;;;;0.75;0.75;;;9.40;99.90;;;;;;5031931;28;20191;-85
2024/01/03 10:24:18;;;;;;;1.17;0.97;;;9.50;99.90;;;;;;5031890;28;20660;-85
2024/01/03 10:26:45;;;;;;;0.90;0.47;;;9.60;99.90;;;;;;5018677;28;20543;-83
2024/01/03 10:29:14;;;;;;;0.82;0.77;;;9.70;99.90;;;;;;5028895;28;20426;-85
2024/01/03 10:31:40;;;;;;;0.50;0.50;;;9.80;99.90;;;;;;5032797;28;20552;-84
2024/01/03 10:34:12;;;;;;;1.67;0.93;;;9.90;99.90;;;;;;5023930;28;20463;-82
2024/01/03 10:36:40;;;;;;;2.90;1.63;;;9.90;99.90;;;;;;5016469;28;20540;-84
2024/01/03 10:39:08;;;;;;;1.90;1.57;;;10.00;99.90;;;;;;5030121;28;20212;-83
2024/01/03 10:41:39;;;;;;;0.50;0.40;;;10.00;99.90;;;;;;5006881;28;20960;-83
2024/01/03 10:44:06;;;;;;;11.30;1.23;;;10.10;99.90;;;;;;5012223;28;20213;-81
2024/01/03 10:46:33;;;;;;;1.10;0.87;;;10.10;99.90;;;;;;5015245;28;20499;-82
2024/01/03 10:49:01;;;;;;;0.77;0.77;;;10.10;99.90;;;;;;5031761;28;20423;-83
2024/01/03 10:51:32;;;;;;;2.20;0.70;;;10.10;99.90;;;;;;5031770;28;20192;-83
2024/01/03 10:54:00;;;;;;;0.57;0.47;;;10.10;99.90;;;;;;5032003;28;20572;-84
2024/01/03 10:56:29;;;;;;;1.77;0.90;;;10.20;99.90;;;;;;5031811;28;20957;-83
2024/01/03 10:58:57;;;;;;;2.10;1.00;;;10.30;99.90;;;;;;5016933;28;20479;-84
2024/01/03 11:01:29;;;;;;;0.80;0.73;;;10.30;99.90;;;;;;5013779;28;20981;-84
2024/01/03 11:04:04;;;;;;;0.70;0.57;;;10.30;99.90;;;;;;5031689;28;20459;-83
2024/01/03 11:06:39;;;;;;;0.80;0.80;;;10.30;99.90;;;;;;5031695;28;20476;-83
2024/01/03 11:09:06;;;;;;;4.30;1.15;;;10.30;99.90;;;;;;5033164;28;20423;-83
2024/01/03 11:11:33;;;;;;;0.50;0.40;;;10.30;99.90;;;;;;5032323;28;20279;-83
2024/01/03 11:14:02;;;;;;;7.20;1.27;;;10.20;99.90;;;;;;5031861;28;20473;-84
2024/01/03 11:16:37;;;;;;;4.80;1.43;;;10.20;99.90;;;;;;5031541;28;20437;-84
2024/01/03 11:19:05;;;;;;;1.40;1.30;;;10.20;99.90;;;;;;5031943;28;20474;-83
2024/01/03 11:22:03;;;;;;;4.82;2.95;;;10.20;99.90;;;;;;5032801;28;20196;-81
2024/01/03 11:24:43;;;;;;;0.67;0.63;;;10.20;99.90;;;;;;4945263;29;20795;-83
2024/01/03 11:27:19;;;;;;;0.93;0.60;;;10.20;99.90;;;;;;4950349;29;20465;-83
2024/01/03 11:29:48;;;;;;;4.15;1.10;;;10.20;99.90;;;;;;4951440;29;20206;-83
2024/01/03 11:32:16;;;;;;;6.37;1.80;;;10.10;99.90;;;;;;4951545;29;20198;-82
2024/01/03 11:34:44;;;;;;;0.52;0.52;;;10.10;99.90;;;;;;4951784;29;20465;-83
2024/01/03 11:37:32;;;;;;;0.50;0.30;;;10.10;99.90;;;;;;4951097;29;20195;-80
2024/01/03 11:39:59;;;;;;;11.88;0.82;;;10.10;99.90;;;;;;4946153;29;20481;-83
2024/01/03 11:42:30;;;;;;;1.83;0.83;;;10.10;99.90;;;;;;4950272;28;20202;-82
2024/01/03 11:45:06;;;;;;;1.17;0.85;;;10.10;99.90;;;;;;4954767;29;20458;-83
2024/01/03 11:47:34;;;;;;;13.07;2.43;;;10.30;99.90;;;;;;4954490;29;20642;-83
2024/01/03 11:50:03;;;;;;;0.60;0.60;;;10.30;99.90;;;;;;4954636;29;20430;-83
2024/01/03 11:52:31;;;;;;;4.23;0.60;;;10.20;99.90;;;;;;4954346;29;20198;-84
2024/01/03 11:55:10;;;;;;;1.13;1.03;;;10.20;99.90;;;;;;4954535;29;20454;-82
2024/01/03 11:57:40;;;;;;;0.50;0.40;;;10.20;99.90;;;;;;4954144;29;20473;-84
2024/01/03 12:00:10;;;;;;;5.57;2.97;;;10.20;99.90;;;;;;4955123;29;20525;-84
2024/01/03 12:02:37;;;;;;;8.30;1.53;;;10.30;99.90;;;;;;5022457;28;21005;-85
2024/01/03 12:05:05;;;;;;;1.17;0.97;;;10.30;99.90;;;;;;5034918;28;20470;-86
2024/01/03 12:07:35;;;;;;;1.53;0.50;;;10.40;99.90;;;;;;5035082;28;20521;-85
2024/01/03 12:10:03;;;;;;;4.40;1.67;;;10.50;99.90;;;;;;5035407;28;20435;-85
2024/01/03 12:12:31;;;;;;;10.10;0.97;;;10.60;99.90;;;;;;5035331;28;20537;-85
2024/01/03 12:14:57;;;;;;;25.98;1.38;;;10.70;99.90;;;;;;5035023;28;20466;-86
2024/01/03 12:17:27;;;;;;;5.60;0.80;;;10.70;99.90;;;;;;5035664;28;20206;-83
2024/01/03 12:19:57;;;;;;;6.37;1.53;;;10.80;99.90;;;;;;5035135;28;20484;-85
2024/01/03 12:22:24;;;;;;;3.47;1.60;;;10.80;99.90;;;;;;5035382;28;20442;-84
2024/01/03 12:24:51;;;;;;;0.80;0.50;;;10.80;99.90;;;;;;5027475;28;20466;-82
2024/01/03 12:27:23;;;;;;;0.87;0.83;;;10.70;99.90;;;;;;5014387;28;20930;-83
2024/01/03 12:29:50;;;;;;;6.70;2.07;;;10.70;99.90;;;;;;5015411;28;20514;-83
2024/01/03 12:32:18;;;;;;;7.72;1.70;;;10.70;99.90;;;;;;5016527;28;20617;-83
2024/01/03 12:34:48;;;;;;;27.33;1.67;;;10.70;99.90;;;;;;5015755;28;20226;-83
2024/01/03 12:37:15;;;;;;;9.10;1.03;;;10.80;99.90;;;;;;5016199;28;20453;-84
2024/01/03 12:39:41;;;;;;;2.60;0.70;;;10.80;99.90;;;;;;5015529;28;20482;-83
2024/01/03 12:42:10;;;;;;;4.47;1.57;;;10.70;99.90;;;;;;5014617;28;20487;-84
2024/01/03 12:44:37;;;;;;;0.60;0.57;;;10.70;99.90;;;;;;5015163;28;20510;-82
2024/01/03 12:47:05;;;;;;;0.73;0.60;;;10.70;99.90;;;;;;5012155;28;20440;-83
2024/01/03 12:49:32;;;;;;;4.30;1.37;;;10.50;99.90;;;;;;5014607;28;20915;-82
2024/01/03 12:52:00;;;;;;;1.10;0.90;;;10.40;99.90;;;;;;5015239;28;20451;-82
2024/01/03 12:54:27;;;;;;;2.40;2.20;;;10.20;99.90;;;;;;5010558;28;20491;-84
2024/01/03 12:56:54;;;;;;;0.50;0.50;;;10.00;99.90;;;;;;5012086;28;20470;-81
2024/01/03 12:59:21;;;;;;;0.60;0.50;;;9.80;99.90;;;;;;5014782;28;20439;-83